sensor_id;sensor_type;location;lat;lon;timestamp;pressure;altitude;pressure_sealevel;temperature;humidity
24280;BME280;12395;42.808;23.408;2023-01-29T00:01:49;94982.59;;;0.15;100.00
24280;BME280;12395;42.808;23.408;2023-01-29T00:04:14;94976.84;;;0.12;100.00
24280;BME280;12395;42.808;23.408;2023-01-29T00:06:40;94976.06;;;0.02;100.00
24280;BME280;12395;42.808;23.408;2023-01-29T00:09:05;94988.25;;;0.11;100.00
24280;BME280;12395;42.808;23.408;2023-01-29T00:11:30;94987.13;;;0.13;100.00
24280;BME280;12395;42.808;23.408;2023-01-29T00:13:56;94986.31;;;0.13;100.00
24280;BME280;12395;42.808;23.408;2023-01-29T00:16:22;94979.88;;;0.07;100.00
24280;BME280;12395;42.808;23.408;2023-01-29T00:18:47;94990.97;;;0.19;100.00
24280;BME280;12395;42.808;23.408;2023-01-29T00:21:18;94998.19;;;0.25;100.00
24280;BME280;12395;42.808;23.408;2023-01-29T00:23:44;94998.19;;;0.25;100.00
24280;BME280;12395;42.808;23.408;2023-01-29T00:26:10;94981.22;;;0.21;100.00
24280;BME280;12395;42.808;23.408;2023-01-29T00:28:36;94994.50;;;0.18;100.00
24280;BME280;12395;42.808;23.408;2023-01-29T00:31:29;94994.91;;;0.23;100.00
24280;BME280;12395;42.808;23.408;2023-01-29T00:33:54;95003.41;;;0.25;100.00
24280;BME280;12395;42.808;23.408;2023-01-29T00:36:20;94989.19;;;0.10;100.00
24280;BME280;12395;42.808;23.408;2023-01-29T00:38:46;94991.13;;;0.08;100.00
24280;BME280;12395;42.808;23.408;2023-01-29T00:41:19;95010.13;;;0.18;100.00
24280;BME280;12395;42.808;23.408;2023-01-29T00:44:05;95000.44;;;0.10;100.00
24280;BME280;12395;42.808;23.408;2023-01-29T00:46:48;94994.16;;;0.03;100.00
24280;BME280;12395;42.808;23.408;2023-01-29T00:49:14;94997.97;;;0.09;100.00
24280;BME280;12395;42.808;23.408;2023-01-29T00:51:39;95001.13;;;0.12;100.00
24280;BME280;12395;42.808;23.408;2023-01-29T00:54:05;95003.44;;;0.15;100.00
24280;BME280;12395;42.808;23.408;2023-01-29T00:56:33;94990.56;;;0.14;100.00
24280;BME280;12395;42.808;23.408;2023-01-29T00:58:58;95001.66;;;0.16;100.00
24280;BME280;12395;42.808;23.408;2023-01-29T01:01:24;94996.00;;;0.20;100.00
24280;BME280;12395;42.808;23.408;2023-01-29T01:04:09;94997.78;;;0.20;100.00
24280;BME280;12395;42.808;23.408;2023-01-29T01:06:39;95002.88;;;0.21;100.00
24280;BME280;12395;42.808;23.408;2023-01-29T01:09:05;94992.06;;;0.16;100.00
24280;BME280;12395;42.808;23.408;2023-01-29T01:11:49;94991.66;;;0.11;100.00
24280;BME280;12395;42.808;23.408;2023-01-29T01:14:16;94995.91;;;0.12;100.00
24280;BME280;12395;42.808;23.408;2023-01-29T01:16:43;94999.78;;;0.08;100.00
24280;BME280;12395;42.808;23.408;2023-01-29T01:19:09;94994.41;;;0.10;100.00
24280;BME280;12395;42.808;23.408;2023-01-29T01:21:34;95000.13;;;0.23;100.00
24280;BME280;12395;42.808;23.408;2023-01-29T01:24:00;94993.16;;;0.14;100.00
24280;BME280;12395;42.808;23.408;2023-01-29T01:26:25;94990.69;;;0.12;100.00
24280;BME280;12395;42.808;23.408;2023-01-29T01:28:52;94987.00;;;0.15;100.00
24280;BME280;12395;42.808;23.408;2023-01-29T01:31:17;95001.91;;;0.22;100.00
24280;BME280;12395;42.808;23.408;2023-01-29T01:33:43;94999.44;;;0.21;100.00
24280;BME280;12395;42.808;23.408;2023-01-29T01:36:08;94996.06;;;0.11;100.00
24280;BME280;12395;42.808;23.408;2023-01-29T01:38:36;94991.81;;;0.10;100.00
24280;BME280;12395;42.808;23.408;2023-01-29T01:41:08;95006.97;;;0.24;100.00
24280;BME280;12395;42.808;23.408;2023-01-29T01:46:14;94995.19;;;0.20;100.00
24280;BME280;12395;42.808;23.408;2023-01-29T01:48:40;94999.19;;;0.14;100.00
24280;BME280;12395;42.808;23.408;2023-01-29T01:51:06;95004.00;;;0.09;100.00
24280;BME280;12395;42.808;23.408;2023-01-29T01:53:41;94993.47;;;0.11;100.00
24280;BME280;12395;42.808;23.408;2023-01-29T01:56:20;94994.94;;;0.13;100.00
24280;BME280;12395;42.808;23.408;2023-01-29T01:58:54;94989.19;;;0.10;100.00
24280;BME280;12395;42.808;23.408;2023-01-29T02:01:22;94997.69;;;0.12;100.00
24280;BME280;12395;42.808;23.408;2023-01-29T02:04:01;95013.44;;;0.20;100.00
24280;BME280;12395;42.808;23.408;2023-01-29T02:06:46;95007.53;;;0.18;100.00
24280;BME280;12395;42.808;23.408;2023-01-29T02:09:34;95015.44;;;0.26;100.00
24280;BME280;12395;42.808;23.408;2023-01-29T02:12:07;95011.38;;;0.23;100.00
24280;BME280;12395;42.808;23.408;2023-01-29T02:14:34;95013.81;;;0.25;100.00
24280;BME280;12395;42.808;23.408;2023-01-29T02:17:03;95009.56;;;0.24;100.00
24280;BME280;12395;42.808;23.408;2023-01-29T02:22:46;95015.09;;;0.21;100.00
24280;BME280;12395;42.808;23.408;2023-01-29T02:39:20;95007.97;;;0.13;100.00
24280;BME280;12395;42.808;23.408;2023-01-29T02:47:16;94998.94;;;0.08;100.00
24280;BME280;12395;42.808;23.408;2023-01-29T02:50:11;95031.38;;;0.23;100.00
24280;BME280;12395;42.808;23.408;2023-01-29T02:52:44;95020.03;;;0.14;100.00
24280;BME280;12395;42.808;23.408;2023-01-29T02:55:20;95017.44;;;0.14;100.00
24280;BME280;12395;42.808;23.408;2023-01-29T02:57:50;95011.38;;;0.14;100.00
24280;BME280;12395;42.808;23.408;2023-01-29T03:00:22;95025.19;;;0.24;100.00
24280;BME280;12395;42.808;23.408;2023-01-29T03:05:18;95027.69;;;0.16;100.00
24280;BME280;12395;42.808;23.408;2023-01-29T03:07:55;95036.03;;;0.29;100.00
24280;BME280;12395;42.808;23.408;2023-01-29T03:10:47;95032.75;;;0.27;100.00
24280;BME280;12395;42.808;23.408;2023-01-29T03:13:33;95029.72;;;0.22;100.00
24280;BME280;12395;42.808;23.408;2023-01-29T03:16:07;95036.59;;;0.23;100.00
24280;BME280;12395;42.808;23.408;2023-01-29T03:18:40;95040.56;;;0.27;100.00
24280;BME280;12395;42.808;23.408;2023-01-29T03:21:14;95030.28;;;0.25;100.00
24280;BME280;12395;42.808;23.408;2023-01-29T03:24:00;95032.84;;;0.35;100.00
24280;BME280;12395;42.808;23.408;2023-01-29T03:26:44;95046.19;;;0.32;100.00
24280;BME280;12395;42.808;23.408;2023-01-29T03:29:33;95041.63;;;0.34;100.00
24280;BME280;12395;42.808;23.408;2023-01-29T03:32:20;95044.34;;;0.42;100.00
24280;BME280;12395;42.808;23.408;2023-01-29T03:34:52;95044.09;;;0.45;100.00
24280;BME280;12395;42.808;23.408;2023-01-29T03:37:35;95035.56;;;0.43;100.00
24280;BME280;12395;42.808;23.408;2023-01-29T03:40:06;95034.75;;;0.42;100.00
24280;BME280;12395;42.808;23.408;2023-01-29T03:42:43;95051.84;;;0.54;100.00
24280;BME280;12395;42.808;23.408;2023-01-29T03:48:34;95041.00;;;0.49;100.00
24280;BME280;12395;42.808;23.408;2023-01-29T03:51:37;95046.69;;;0.45;100.00
24280;BME280;12395;42.808;23.408;2023-01-29T04:01:57;95040.22;;;0.49;100.00
24280;BME280;12395;42.808;23.408;2023-01-29T04:04:33;95033.34;;;0.48;100.00
24280;BME280;12395;42.808;23.408;2023-01-29T04:07:05;95035.00;;;0.49;100.00
24280;BME280;12395;42.808;23.408;2023-01-29T04:09:50;95039.09;;;0.51;100.00
24280;BME280;12395;42.808;23.408;2023-01-29T04:12:23;95044.44;;;0.50;100.00
24280;BME280;12395;42.808;23.408;2023-01-29T04:14:52;95039.28;;;0.40;100.00
24280;BME280;12395;42.808;23.408;2023-01-29T04:17:26;95049.66;;;0.50;100.00
24280;BME280;12395;42.808;23.408;2023-01-29T04:19:54;95028.22;;;0.29;100.00
24280;BME280;12395;42.808;23.408;2023-01-29T04:22:35;95054.88;;;0.50;100.00
24280;BME280;12395;42.808;23.408;2023-01-29T04:25:04;95047.91;;;0.41;100.00
24280;BME280;12395;42.808;23.408;2023-01-29T04:38:31;95067.38;;;0.46;100.00
24280;BME280;12395;42.808;23.408;2023-01-29T04:41:05;95067.22;;;0.48;100.00
24280;BME280;12395;42.808;23.408;2023-01-29T04:47:04;95073.13;;;0.50;100.00
24280;BME280;12395;42.808;23.408;2023-01-29T04:57:44;95065.03;;;0.53;100.00
24280;BME280;12395;42.808;23.408;2023-01-29T05:02:43;95073.22;;;0.58;100.00
24280;BME280;12395;42.808;23.408;2023-01-29T05:05:10;95080.50;;;0.64;100.00
24280;BME280;12395;42.808;23.408;2023-01-29T05:07:38;95043.81;;;0.38;100.00
24280;BME280;12395;42.808;23.408;2023-01-29T05:10:07;95083.53;;;0.59;100.00
24280;BME280;12395;42.808;23.408;2023-01-29T05:12:35;95075.97;;;0.56;100.00
24280;BME280;12395;42.808;23.408;2023-01-29T05:15:02;95083.09;;;0.64;100.00
24280;BME280;12395;42.808;23.408;2023-01-29T05:17:29;95069.41;;;0.62;100.00
24280;BME280;12395;42.808;23.408;2023-01-29T05:19:55;95079.38;;;0.66;100.00
24280;BME280;12395;42.808;23.408;2023-01-29T05:22:21;95083.47;;;0.69;100.00
24280;BME280;12395;42.808;23.408;2023-01-29T05:24:50;95071.75;;;0.55;100.00
24280;BME280;12395;42.808;23.408;2023-01-29T05:27:21;95081.53;;;0.71;100.00
24280;BME280;12395;42.808;23.408;2023-01-29T05:30:07;95091.69;;;0.74;100.00
24280;BME280;12395;42.808;23.408;2023-01-29T05:32:34;95078.94;;;0.71;100.00
24280;BME280;12395;42.808;23.408;2023-01-29T05:34:59;95087.16;;;0.76;100.00
24280;BME280;12395;42.808;23.408;2023-01-29T05:37:25;95092.22;;;0.77;100.00
24280;BME280;12395;42.808;23.408;2023-01-29T05:39:50;95098.13;;;0.79;100.00
24280;BME280;12395;42.808;23.408;2023-01-29T05:42:16;95081.94;;;0.76;100.00
24280;BME280;12395;42.808;23.408;2023-01-29T05:44:41;95082.81;;;0.67;100.00
24280;BME280;12395;42.808;23.408;2023-01-29T05:47:06;95082.66;;;0.68;100.00
24280;BME280;12395;42.808;23.408;2023-01-29T05:49:32;95102.81;;;0.76;100.00
24280;BME280;12395;42.808;23.408;2023-01-29T05:51:57;95095.84;;;0.67;100.00
24280;BME280;12395;42.808;23.408;2023-01-29T05:54:23;95104.75;;;0.74;100.00
24280;BME280;12395;42.808;23.408;2023-01-29T05:56:48;95089.38;;;0.71;100.00
24280;BME280;12395;42.808;23.408;2023-01-29T05:59:14;95099.38;;;0.75;100.00
24280;BME280;12395;42.808;23.408;2023-01-29T06:01:40;95118.56;;;0.84;100.00
24280;BME280;12395;42.808;23.408;2023-01-29T06:04:05;95110.72;;;0.84;100.00
24280;BME280;12395;42.808;23.408;2023-01-29T06:06:31;95109.19;;;0.91;100.00
24280;BME280;12395;42.808;23.408;2023-01-29T06:08:56;95117.13;;;0.99;100.00
24280;BME280;12395;42.808;23.408;2023-01-29T06:11:21;95107.53;;;0.90;100.00
24280;BME280;12395;42.808;23.408;2023-01-29T06:13:47;95113.31;;;0.94;100.00
24280;BME280;12395;42.808;23.408;2023-01-29T06:16:13;95104.94;;;0.90;100.00
24280;BME280;12395;42.808;23.408;2023-01-29T06:18:39;95119.72;;;0.99;100.00
24280;BME280;12395;42.808;23.408;2023-01-29T06:21:07;95126.28;;;1.03;100.00
24280;BME280;12395;42.808;23.408;2023-01-29T06:23:32;95127.94;;;1.04;100.00
24280;BME280;12395;42.808;23.408;2023-01-29T06:26:03;95118.78;;;1.00;100.00
24280;BME280;12395;42.808;23.408;2023-01-29T06:28:29;95138.63;;;1.11;100.00
24280;BME280;12395;42.808;23.408;2023-01-29T06:31:00;95132.59;;;1.10;100.00
24280;BME280;12395;42.808;23.408;2023-01-29T06:33:26;95141.75;;;1.14;100.00
24280;BME280;12395;42.808;23.408;2023-01-29T06:35:56;95138.63;;;1.11;100.00
24280;BME280;12395;42.808;23.408;2023-01-29T06:38:22;95130.41;;;1.06;100.00
24280;BME280;12395;42.808;23.408;2023-01-29T06:40:48;95139.75;;;1.08;100.00
24280;BME280;12395;42.808;23.408;2023-01-29T06:43:13;95156.00;;;1.20;100.00
24280;BME280;12395;42.808;23.408;2023-01-29T06:45:46;95158.41;;;1.13;100.00
24280;BME280;12395;42.808;23.408;2023-01-29T06:48:11;95133.28;;;1.03;100.00
24280;BME280;12395;42.808;23.408;2023-01-29T06:50:36;95157.16;;;1.17;100.00
24280;BME280;12395;42.808;23.408;2023-01-29T06:53:02;95152.88;;;1.16;100.00
24280;BME280;12395;42.808;23.408;2023-01-29T06:55:27;95143.97;;;1.09;100.00
24280;BME280;12395;42.808;23.408;2023-01-29T06:57:53;95154.38;;;1.19;100.00
24280;BME280;12395;42.808;23.408;2023-01-29T07:00:18;95152.47;;;1.11;100.00
24280;BME280;12395;42.808;23.408;2023-01-29T07:02:48;95160.59;;;1.08;100.00
24280;BME280;12395;42.808;23.408;2023-01-29T07:05:13;95156.56;;;0.96;100.00
24280;BME280;12395;42.808;23.408;2023-01-29T07:07:39;95174.59;;;1.07;100.00
24280;BME280;12395;42.808;23.408;2023-01-29T07:10:04;95173.25;;;1.03;100.00
24280;BME280;12395;42.808;23.408;2023-01-29T07:12:30;95166.69;;;0.99;100.00
24280;BME280;12395;42.808;23.408;2023-01-29T07:14:55;95151.44;;;0.95;100.00
24280;BME280;12395;42.808;23.408;2023-01-29T07:17:21;95171.63;;;1.02;100.00
24280;BME280;12395;42.808;23.408;2023-01-29T07:19:46;95183.69;;;1.03;100.00
24280;BME280;12395;42.808;23.408;2023-01-29T07:22:11;95176.53;;;1.05;100.00
24280;BME280;12395;42.808;23.408;2023-01-29T07:24:37;95169.69;;;1.04;100.00
24280;BME280;12395;42.808;23.408;2023-01-29T07:27:02;95175.97;;;1.11;100.00
24280;BME280;12395;42.808;23.408;2023-01-29T07:29:27;95182.25;;;1.18;100.00
24280;BME280;12395;42.808;23.408;2023-01-29T07:31:53;95160.47;;;1.10;100.00
24280;BME280;12395;42.808;23.408;2023-01-29T07:34:18;95189.06;;;1.29;100.00
24280;BME280;12395;42.808;23.408;2023-01-29T07:36:43;95188.97;;;1.21;100.00
24280;BME280;12395;42.808;23.408;2023-01-29T07:39:09;95176.75;;;1.21;100.00
24280;BME280;12395;42.808;23.408;2023-01-29T07:41:34;95185.22;;;1.33;100.00
24280;BME280;12395;42.808;23.408;2023-01-29T07:44:00;95177.28;;;1.25;100.00
24280;BME280;12395;42.808;23.408;2023-01-29T07:46:25;95192.09;;;1.34;100.00
24280;BME280;12395;42.808;23.408;2023-01-29T07:48:50;95189.03;;;1.38;100.00
24280;BME280;12395;42.808;23.408;2023-01-29T07:51:16;95189.28;;;1.45;100.00
24280;BME280;12395;42.808;23.408;2023-01-29T07:53:42;95188.19;;;1.47;100.00
24280;BME280;12395;42.808;23.408;2023-01-29T07:56:09;95190.09;;;1.45;100.00
24280;BME280;12395;42.808;23.408;2023-01-29T07:58:34;95209.91;;;1.66;100.00
24280;BME280;12395;42.808;23.408;2023-01-29T08:01:04;95207.81;;;1.69;100.00
24280;BME280;12395;42.808;23.408;2023-01-29T08:03:29;95210.00;;;1.74;100.00
24280;BME280;12395;42.808;23.408;2023-01-29T08:05:56;95202.31;;;1.72;100.00
24280;BME280;12395;42.808;23.408;2023-01-29T08:08:22;95220.44;;;1.74;100.00
24280;BME280;12395;42.808;23.408;2023-01-29T08:10:47;95222.47;;;1.80;100.00
24280;BME280;12395;42.808;23.408;2023-01-29T08:13:12;95198.81;;;1.64;100.00
24280;BME280;12395;42.808;23.408;2023-01-29T08:15:41;95212.94;;;1.71;100.00
24280;BME280;12395;42.808;23.408;2023-01-29T08:18:07;95216.97;;;1.83;100.00
24280;BME280;12395;42.808;23.408;2023-01-29T08:20:33;95195.31;;;1.73;100.00
24280;BME280;12395;42.808;23.408;2023-01-29T08:23:01;95211.34;;;1.78;100.00
24280;BME280;12395;42.808;23.408;2023-01-29T08:25:27;95224.53;;;1.86;100.00
24280;BME280;12395;42.808;23.408;2023-01-29T08:27:52;95212.66;;;1.91;100.00
24280;BME280;12395;42.808;23.408;2023-01-29T08:30:18;95220.88;;;1.96;100.00
24280;BME280;12395;42.808;23.408;2023-01-29T08:32:43;95239.69;;;2.00;100.00
24280;BME280;12395;42.808;23.408;2023-01-29T08:35:08;95217.72;;;1.93;100.00
24280;BME280;12395;42.808;23.408;2023-01-29T08:37:34;95231.78;;;1.92;100.00
24280;BME280;12395;42.808;23.408;2023-01-29T08:39:59;95230.75;;;2.02;100.00
24280;BME280;12395;42.808;23.408;2023-01-29T08:42:24;95232.84;;;1.99;100.00
24280;BME280;12395;42.808;23.408;2023-01-29T08:44:50;95232.91;;;2.07;100.00
24280;BME280;12395;42.808;23.408;2023-01-29T08:47:15;95234.50;;;2.17;100.00
24280;BME280;12395;42.808;23.408;2023-01-29T08:49:40;95256.66;;;2.31;100.00
24280;BME280;12395;42.808;23.408;2023-01-29T08:52:06;95259.97;;;2.33;100.00
24280;BME280;12395;42.808;23.408;2023-01-29T08:54:31;95256.38;;;2.34;100.00
24280;BME280;12395;42.808;23.408;2023-01-29T08:56:56;95250.03;;;2.37;100.00
24280;BME280;12395;42.808;23.408;2023-01-29T08:59:22;95246.59;;;2.36;100.00
24280;BME280;12395;42.808;23.408;2023-01-29T09:01:47;95259.38;;;2.39;99.33
24280;BME280;12395;42.808;23.408;2023-01-29T09:04:13;95254.16;;;2.39;99.50
24280;BME280;12395;42.808;23.408;2023-01-29T09:06:38;95263.41;;;2.51;98.91
24280;BME280;12395;42.808;23.408;2023-01-29T09:09:03;95254.81;;;2.41;98.66
24280;BME280;12395;42.808;23.408;2023-01-29T09:11:29;95263.16;;;2.45;99.47
24280;BME280;12395;42.808;23.408;2023-01-29T09:13:55;95243.97;;;2.36;99.12
24280;BME280;12395;42.808;23.408;2023-01-29T09:16:21;95245.63;;;2.37;99.45
24280;BME280;12395;42.808;23.408;2023-01-29T09:18:46;95244.44;;;2.49;98.76
24280;BME280;12395;42.808;23.408;2023-01-29T09:21:11;95247.09;;;2.57;98.41
24280;BME280;12395;42.808;23.408;2023-01-29T09:23:37;95250.09;;;2.62;97.35
24280;BME280;12395;42.808;23.408;2023-01-29T09:26:02;95248.81;;;2.66;96.51
24280;BME280;12395;42.808;23.408;2023-01-29T09:28:28;95215.88;;;2.56;96.50
24280;BME280;12395;42.808;23.408;2023-01-29T09:30:53;95246.13;;;2.76;96.30
24280;BME280;12395;42.808;23.408;2023-01-29T09:33:19;95250.84;;;2.72;96.96
24280;BME280;12395;42.808;23.408;2023-01-29T09:35:44;95236.19;;;2.62;96.17
24280;BME280;12395;42.808;23.408;2023-01-29T09:38:11;95229.25;;;2.53;96.49
24280;BME280;12395;42.808;23.408;2023-01-29T09:41:02;95254.94;;;2.75;95.80
24280;BME280;12395;42.808;23.408;2023-01-29T09:44:03;95242.97;;;2.72;95.78
24280;BME280;12395;42.808;23.408;2023-01-29T09:46:39;95235.47;;;2.69;95.50
24280;BME280;12395;42.808;23.408;2023-01-29T09:49:14;95247.03;;;2.84;95.74
24280;BME280;12395;42.808;23.408;2023-01-29T09:51:48;95250.88;;;2.98;95.36
24280;BME280;12395;42.808;23.408;2023-01-29T09:55:05;95231.47;;;3.08;95.55
24280;BME280;12395;42.808;23.408;2023-01-29T09:57:07;95242.16;;;3.15;94.81
24280;BME280;12395;42.808;23.408;2023-01-29T09:59:34;95229.84;;;3.07;93.37
24280;BME280;12395;42.808;23.408;2023-01-29T10:05:44;95239.69;;;3.13;92.35
24280;BME280;12395;42.808;23.408;2023-01-29T10:10:49;95239.75;;;3.22;93.20
24280;BME280;12395;42.808;23.408;2023-01-29T10:18:58;95207.66;;;2.94;94.34
24280;BME280;12395;42.808;23.408;2023-01-29T10:26:35;95200.53;;;3.04;94.56
24280;BME280;12395;42.808;23.408;2023-01-29T10:29:05;95210.94;;;3.22;94.72
24280;BME280;12395;42.808;23.408;2023-01-29T10:31:33;95171.63;;;3.13;92.33
24280;BME280;12395;42.808;23.408;2023-01-29T10:36:42;95205.41;;;3.25;90.83
24280;BME280;12395;42.808;23.408;2023-01-29T10:39:15;95223.28;;;3.29;90.90
24280;BME280;12395;42.808;23.408;2023-01-29T10:50:02;95216.50;;;3.19;92.23
24280;BME280;12395;42.808;23.408;2023-01-29T10:52:50;95198.34;;;3.25;91.10
24280;BME280;12395;42.808;23.408;2023-01-29T10:55:32;95210.38;;;3.36;90.78
24280;BME280;12395;42.808;23.408;2023-01-29T11:00:53;95199.59;;;3.47;91.01
24280;BME280;12395;42.808;23.408;2023-01-29T11:03:23;95201.25;;;3.48;90.28
24280;BME280;12395;42.808;23.408;2023-01-29T11:11:38;95182.06;;;3.05;92.80
24280;BME280;12395;42.808;23.408;2023-01-29T11:14:11;95179.38;;;2.97;92.87
24280;BME280;12395;42.808;23.408;2023-01-29T11:16:43;95180.66;;;2.93;92.57
24280;BME280;12395;42.808;23.408;2023-01-29T11:19:11;95177.59;;;2.72;93.39
24280;BME280;12395;42.808;23.408;2023-01-29T11:21:56;95178.28;;;2.82;93.47
24280;BME280;12395;42.808;23.408;2023-01-29T11:24:22;95176.25;;;2.68;93.95
24280;BME280;12395;42.808;23.408;2023-01-29T11:26:48;95176.16;;;2.78;94.52
24280;BME280;12395;42.808;23.408;2023-01-29T11:29:45;95164.97;;;2.68;93.99
24280;BME280;12395;42.808;23.408;2023-01-29T11:37:21;95154.00;;;2.64;96.09
24280;BME280;12395;42.808;23.408;2023-01-29T11:39:46;95156.31;;;2.67;95.96
24280;BME280;12395;42.808;23.408;2023-01-29T11:42:22;95162.47;;;2.84;95.54
24280;BME280;12395;42.808;23.408;2023-01-29T11:44:48;95146.97;;;2.90;94.95
24280;BME280;12395;42.808;23.408;2023-01-29T11:47:22;95161.84;;;3.24;94.09
24280;BME280;12395;42.808;23.408;2023-01-29T11:49:51;95157.00;;;3.37;92.49
24280;BME280;12395;42.808;23.408;2023-01-29T11:52:20;95157.31;;;3.34;90.71
24280;BME280;12395;42.808;23.408;2023-01-29T11:54:51;95159.81;;;3.43;90.96
24280;BME280;12395;42.808;23.408;2023-01-29T11:57:33;95140.91;;;3.24;89.18
24280;BME280;12395;42.808;23.408;2023-01-29T12:00:16;95138.28;;;3.16;90.20
24280;BME280;12395;42.808;23.408;2023-01-29T12:02:47;95163.56;;;3.41;90.17
24280;BME280;12395;42.808;23.408;2023-01-29T12:05:23;95166.81;;;3.27;90.28
24280;BME280;12395;42.808;23.408;2023-01-29T12:07:51;95143.47;;;3.07;88.98
24280;BME280;12395;42.808;23.408;2023-01-29T12:10:38;95146.56;;;3.03;91.47
24280;BME280;12395;42.808;23.408;2023-01-29T12:13:27;95151.00;;;2.85;92.40
24280;BME280;12395;42.808;23.408;2023-01-29T12:16:15;95155.75;;;2.81;93.60
24280;BME280;12395;42.808;23.408;2023-01-29T12:18:50;95143.59;;;2.72;94.79
24280;BME280;12395;42.808;23.408;2023-01-29T12:21:36;95148.47;;;2.93;94.09
24280;BME280;12395;42.808;23.408;2023-01-29T12:24:05;95146.66;;;2.93;93.56
24280;BME280;12395;42.808;23.408;2023-01-29T12:29:30;95160.81;;;3.08;92.34
24280;BME280;12395;42.808;23.408;2023-01-29T12:32:30;95150.91;;;2.94;91.29
24280;BME280;12395;42.808;23.408;2023-01-29T12:35:05;95159.09;;;2.99;91.87
24280;BME280;12395;42.808;23.408;2023-01-29T12:37:43;95145.94;;;2.83;89.45
24280;BME280;12395;42.808;23.408;2023-01-29T12:40:14;95166.91;;;2.91;90.30
24280;BME280;12395;42.808;23.408;2023-01-29T12:42:43;95144.56;;;2.97;89.27
24280;BME280;12395;42.808;23.408;2023-01-29T12:45:18;95145.25;;;3.07;89.21
24280;BME280;12395;42.808;23.408;2023-01-29T12:47:57;95148.44;;;3.19;90.00
24280;BME280;12395;42.808;23.408;2023-01-29T12:50:31;95143.56;;;3.32;90.17
24280;BME280;12395;42.808;23.408;2023-01-29T12:53:04;95160.94;;;3.33;89.19
24280;BME280;12395;42.808;23.408;2023-01-29T12:58:13;95154.22;;;3.38;88.12
24280;BME280;12395;42.808;23.408;2023-01-29T13:00:50;95150.66;;;3.39;90.48
24280;BME280;12395;42.808;23.408;2023-01-29T13:03:24;95153.75;;;3.43;88.22
24280;BME280;12395;42.808;23.408;2023-01-29T13:08:20;95138.97;;;3.26;90.43
24280;BME280;12395;42.808;23.408;2023-01-29T13:10:50;95140.72;;;3.17;90.78
24280;BME280;12395;42.808;23.408;2023-01-29T13:13:35;95148.75;;;3.16;90.98
24280;BME280;12395;42.808;23.408;2023-01-29T13:16:05;95152.66;;;3.11;90.72
24280;BME280;12395;42.808;23.408;2023-01-29T13:18:42;95158.59;;;3.22;90.72
24280;BME280;12395;42.808;23.408;2023-01-29T13:21:20;95149.25;;;3.19;89.55
24280;BME280;12395;42.808;23.408;2023-01-29T13:23:49;95156.00;;;3.30;89.78
24280;BME280;12395;42.808;23.408;2023-01-29T13:26:17;95154.88;;;3.32;90.30
24280;BME280;12395;42.808;23.408;2023-01-29T13:28:44;95158.66;;;3.38;89.23
24280;BME280;12395;42.808;23.408;2023-01-29T13:36:51;95164.88;;;3.37;86.17
24280;BME280;12395;42.808;23.408;2023-01-29T13:39:27;95166.47;;;3.30;88.81
24280;BME280;12395;42.808;23.408;2023-01-29T13:41:54;95169.88;;;3.22;88.79
24280;BME280;12395;42.808;23.408;2023-01-29T13:44:26;95165.88;;;3.36;88.96
24280;BME280;12395;42.808;23.408;2023-01-29T13:52:13;95168.31;;;3.37;89.22
24280;BME280;12395;42.808;23.408;2023-01-29T13:54:40;95160.53;;;3.20;86.90
24280;BME280;12395;42.808;23.408;2023-01-29T14:00:00;95167.66;;;3.01;86.88
24280;BME280;12395;42.808;23.408;2023-01-29T14:02:27;95177.34;;;3.09;87.35
24280;BME280;12395;42.808;23.408;2023-01-29T14:07:59;95180.81;;;2.92;88.60
24280;BME280;12395;42.808;23.408;2023-01-29T14:10:29;95184.81;;;2.78;88.33
24280;BME280;12395;42.808;23.408;2023-01-29T14:18:25;95187.38;;;2.70;89.13
24280;BME280;12395;42.808;23.408;2023-01-29T14:21:05;95181.94;;;2.64;88.50
24280;BME280;12395;42.808;23.408;2023-01-29T14:23:35;95196.88;;;2.71;89.69
24280;BME280;12395;42.808;23.408;2023-01-29T14:26:25;95199.41;;;2.63;88.50
24280;BME280;12395;42.808;23.408;2023-01-29T14:34:35;95195.69;;;2.48;90.42
24280;BME280;12395;42.808;23.408;2023-01-29T14:39:50;95197.97;;;2.43;91.33
24280;BME280;12395;42.808;23.408;2023-01-29T14:42:21;95194.69;;;2.41;91.58
24280;BME280;12395;42.808;23.408;2023-01-29T14:44:56;95194.00;;;2.39;91.65
24280;BME280;12395;42.808;23.408;2023-01-29T14:49:55;95199.53;;;2.18;93.59
24280;BME280;12395;42.808;23.408;2023-01-29T14:52:25;95198.06;;;2.16;93.74
24280;BME280;12395;42.808;23.408;2023-01-29T14:54:57;95199.00;;;2.15;94.76
24280;BME280;12395;42.808;23.408;2023-01-29T14:57:24;95203.25;;;1.98;96.18
24280;BME280;12395;42.808;23.408;2023-01-29T15:00:02;95190.94;;;1.91;97.53
24280;BME280;12395;42.808;23.408;2023-01-29T15:02:43;95193.84;;;1.88;98.83
24280;BME280;12395;42.808;23.408;2023-01-29T15:05:26;95203.81;;;1.75;99.01
24280;BME280;12395;42.808;23.408;2023-01-29T15:08:07;95202.72;;;1.77;100.00
24280;BME280;12395;42.808;23.408;2023-01-29T15:10:41;95198.53;;;1.67;100.00
24280;BME280;12395;42.808;23.408;2023-01-29T15:15:54;95194.44;;;1.54;100.00
24280;BME280;12395;42.808;23.408;2023-01-29T15:18:33;95187.63;;;1.44;100.00
24280;BME280;12395;42.808;23.408;2023-01-29T15:21:04;95204.13;;;1.44;100.00
24280;BME280;12395;42.808;23.408;2023-01-29T15:23:35;95206.56;;;1.46;100.00
24280;BME280;12395;42.808;23.408;2023-01-29T15:26:04;95193.97;;;1.41;100.00
24280;BME280;12395;42.808;23.408;2023-01-29T15:28:33;95205.97;;;1.34;100.00
24280;BME280;12395;42.808;23.408;2023-01-29T15:31:00;95196.47;;;1.33;100.00
24280;BME280;12395;42.808;23.408;2023-01-29T15:33:29;95188.81;;;1.22;100.00
24280;BME280;12395;42.808;23.408;2023-01-29T15:36:02;95202.44;;;1.26;100.00
24280;BME280;12395;42.808;23.408;2023-01-29T15:38:28;95187.47;;;1.18;100.00
24280;BME280;12395;42.808;23.408;2023-01-29T15:40:56;95201.06;;;1.22;100.00